Pagrindinis puslapis
METAR-TAF:

METAR-TAF

Oro uostai :

Vaithorsas, Jukonas, Kanada

platuma: 60-43N, ilguma: 135-04W, Aukštis: 703 m

Dabartinis oras

Ataskaita buvo paskelbta 52 minutes, ne 16:00 UTC
Ramus vėjas
Temperatūra -24°C
Drėgmė 69%
Slėgis 1027 hPa
Matomumas: 64.4 km
Mažai debesys ne aukštis 14000 ft
Su prošvaistėmis ne aukštis 24000 ft

METAR: CYXY 311600Z 00000KT 40SM FEW140 BKN240 M24/M28 A3032 RMK AC1CI4 SLP343

Laikas: 09:52 (16:52 UTC)

Prognozė

Ataskaita buvo paskelbta 5 valandos ir 14 minutes, ne 11:38 UTC
Prognozė galioja nuo 31 metu 12 UTC su 31 metu 24 UTC
Vėjas 3 kt nuo kintamojo kryptimis
Matomumas: 10 km
Mažai debesys ne aukštis 11000 ft
Tapsmas
nuo 31 metu 18 UTC su 31 metu 20 UTC
Vėjas 10 kt iš Pietų

TAF: CYXY 311138Z 3112/3124 VRB03KT P6SM FEW110 BECMG 3118/3120 17010KT RMK NXT FCST BY 311800Z

Orai ataskaitas ir orų prognozės (METAR, TAF).

turimą stotys yra geltonos ir raudonos taškus žemėlapyje.

Perkelti pele per norėdami pamatyti stoties vardą.

Tada spustelėkite, norėdami matyti oro stebėjimo ir prognozės.

Norėdami pakeisti žemėlapį: spustelėkite ant žalios mygtukų su juodo kryžiaus žemyn,; žalią mygtuką su brūkšneliu, jei norite nutolinti; arba žalių rodyklių gretimoms žemėlapius.


METAR-TAF: